Terminal Aerodrome Forecast
Issued by NWS

Home | Current Version | Previous Version | Text Only | Print | Product List | Glossary On
Versions: 1 2 3 4 5 6 7 8 9 10 11 12 13 14 15 16 17 18 19 20
454
FTUS41 KGYX 231926 AAB
TAFLEB
TAF AMD
KLEB 231926Z 2319/2418 21012G18KT P6SM SCT060
     FM232100 20010KT P6SM VCSH BKN060
     FM240600 19006KT 6SM BR VCSH BKN025
     FM240900 18005KT 5SM -SHRA BR OVC015
     FM241300 29012G20KT P6SM SCT060=

USA.gov is the U.S. government's official web portal to all federal, state and local government web resources and services.